createdAt,value
2016-05-05T00:00:58.589Z,0
2016-05-05T00:01:52.307Z,0
2016-05-05T00:02:58.641Z,0
2016-05-05T00:03:39.422Z,0
2016-05-05T00:05:36.552Z,0
2016-05-05T00:05:49.224Z,0
2016-05-05T00:07:39.745Z,0
2016-05-05T00:08:05.185Z,0
2016-05-05T00:08:52.122Z,0
2016-05-05T00:10:11.503Z,0
2016-05-05T00:10:52.300Z,0
2016-05-05T00:11:52.553Z,0
2016-05-05T00:13:05.058Z,0
2016-05-05T00:13:52.574Z,0
2016-05-05T00:15:11.719Z,0
2016-05-05T00:15:52.938Z,0
2016-05-05T00:17:18.240Z,0
2016-05-05T00:17:58.822Z,0
2016-05-05T00:18:52.400Z,0
2016-05-05T00:20:43.187Z,0
2016-05-05T00:21:21.533Z,0
2016-05-05T00:21:55.861Z,0
2016-05-05T00:22:57.285Z,0
2016-05-05T00:24:09.088Z,0
2016-05-05T00:25:08.528Z,0
2016-05-05T00:25:55.825Z,0
2016-05-05T00:26:55.796Z,0
2016-05-05T00:27:56.174Z,0
2016-05-05T00:28:55.864Z,0
2016-05-05T00:30:08.650Z,0
2016-05-05T00:30:56.478Z,0
2016-05-05T00:31:57.545Z,0
2016-05-05T00:32:56.015Z,0
2016-05-05T00:33:56.033Z,0
2016-05-05T00:34:57.490Z,0
2016-05-05T00:35:55.961Z,0
2016-05-05T00:36:56.105Z,0
2016-05-05T00:37:55.826Z,0
2016-05-05T00:38:56.110Z,0
2016-05-05T00:39:56.003Z,0
2016-05-05T00:40:57.333Z,0
2016-05-05T00:41:56.164Z,0
2016-05-05T00:42:59.280Z,0
2016-05-05T00:43:56.858Z,0
2016-05-05T00:45:02.707Z,0
2016-05-05T00:46:03.099Z,0
2016-05-05T00:46:56.240Z,0
2016-05-05T00:47:56.150Z,0
2016-05-05T00:48:56.277Z,0
2016-05-05T00:49:56.905Z,0
2016-05-05T00:51:02.599Z,0
2016-05-05T00:51:56.317Z,0
2016-05-05T00:53:08.963Z,0
2016-05-05T00:53:56.963Z,0
2016-05-05T00:55:15.437Z,0
2016-05-05T00:56:09.127Z,0
2016-05-05T00:57:15.630Z,0
2016-05-05T00:57:56.443Z,0
2016-05-05T00:58:56.446Z,0
2016-05-05T00:59:56.917Z,0
2016-05-05T01:01:09.187Z,0
2016-05-05T01:02:09.050Z,0
2016-05-05T01:03:15.536Z,0
2016-05-05T01:03:56.552Z,0
2016-05-05T01:05:02.870Z,0
2016-05-05T01:06:09.107Z,0
2016-05-05T01:07:02.844Z,0
2016-05-05T01:08:15.769Z,0
2016-05-05T01:09:09.208Z,0
2016-05-05T01:09:56.349Z,0
2016-05-05T01:10:56.649Z,0
2016-05-05T01:12:02.904Z,0
2016-05-05T01:13:09.391Z,0
2016-05-05T01:13:56.641Z,0
2016-05-05T01:15:09.428Z,0
2016-05-05T01:15:56.881Z,0
2016-05-05T01:16:56.775Z,0
2016-05-05T01:18:09.452Z,0
2016-05-05T01:18:56.608Z,0
2016-05-05T01:19:56.735Z,0
2016-05-05T01:21:09.382Z,0
2016-05-05T01:22:09.057Z,0
2016-05-05T01:23:15.965Z,0
2016-05-05T01:23:56.793Z,0
2016-05-05T01:25:28.096Z,0
2016-05-05T01:25:56.862Z,0
2016-05-05T01:26:56.677Z,0
2016-05-05T01:27:56.695Z,0
2016-05-05T01:29:03.137Z,0
2016-05-05T01:29:56.934Z,0
2016-05-05T01:30:58.296Z,0
2016-05-05T01:32:03.193Z,0
2016-05-05T01:33:15.976Z,0
2016-05-05T01:33:56.945Z,0
2016-05-05T01:35:22.560Z,0
2016-05-05T01:35:56.967Z,0
2016-05-05T01:37:23.269Z,0
2016-05-05T01:37:57.206Z,0
2016-05-05T01:38:56.850Z,0
2016-05-05T01:40:09.777Z,0
2016-05-05T01:40:57.105Z,0
2016-05-05T01:41:57.030Z,0
2016-05-05T01:43:09.535Z,0
2016-05-05T01:43:58.488Z,0
2016-05-05T01:44:57.022Z,0
2016-05-05T01:46:00.134Z,0
2016-05-05T01:46:57.136Z,0
2016-05-05T01:47:57.107Z,0
2016-05-05T01:48:57.610Z,0
2016-05-05T01:49:57.176Z,0
2016-05-05T01:50:57.225Z,0
2016-05-05T01:52:09.673Z,0
2016-05-05T01:52:57.236Z,0
2016-05-05T01:53:57.734Z,0
2016-05-05T01:54:58.686Z,0
2016-05-05T01:55:57.419Z,0
2016-05-05T01:56:57.151Z,0
2016-05-05T01:58:10.045Z,0
2016-05-05T01:59:03.719Z,0
2016-05-05T02:00:23.097Z,0
2016-05-05T02:00:59.018Z,0
2016-05-05T02:01:57.725Z,0
2016-05-05T02:02:57.472Z,0
2016-05-05T02:03:58.341Z,0
2016-05-05T02:04:57.535Z,0
2016-05-05T02:06:10.303Z,0
2016-05-05T02:06:57.725Z,0
2016-05-05T02:07:57.575Z,0
2016-05-05T02:08:57.924Z,0
2016-05-05T02:09:58.241Z,0
2016-05-05T02:10:57.745Z,0
2016-05-05T02:11:57.796Z,0
2016-05-05T02:12:57.926Z,0
2016-05-05T02:13:59.117Z,0
2016-05-05T02:14:57.713Z,0
2016-05-05T02:15:57.734Z,0
2016-05-05T02:17:10.490Z,0
2016-05-05T02:17:58.365Z,0
2016-05-05T02:19:17.136Z,0
2016-05-05T02:19:57.933Z,0
2016-05-05T02:21:23.627Z,0
2016-05-05T02:21:57.986Z,0
2016-05-05T02:23:29.229Z,0
2016-05-05T02:24:10.637Z,0
2016-05-05T02:24:58.027Z,0
2016-05-05T02:26:17.282Z,0
2016-05-05T02:27:10.614Z,0
2016-05-05T02:27:58.114Z,0
2016-05-05T02:28:58.617Z,0
2016-05-05T02:29:58.120Z,0
2016-05-05T02:31:04.375Z,0
2016-05-05T02:32:04.378Z,0
2016-05-05T02:32:58.721Z,0
2016-05-05T02:34:04.429Z,0
2016-05-05T02:34:58.008Z,0
2016-05-05T02:36:10.903Z,0
2016-05-05T02:36:58.638Z,0
2016-05-05T02:37:58.781Z,0
2016-05-05T02:38:58.331Z,0
2016-05-05T02:39:58.506Z,0
2016-05-05T02:40:58.243Z,0
2016-05-05T02:41:58.105Z,0
2016-05-05T02:42:58.701Z,0
2016-05-05T02:43:58.266Z,0
2016-05-05T02:45:11.053Z,0
2016-05-05T02:45:58.319Z,0
2016-05-05T02:46:58.321Z,0
2016-05-05T02:47:58.183Z,0
2016-05-05T02:49:11.094Z,0
2016-05-05T02:49:58.188Z,0
2016-05-05T02:50:58.348Z,0
2016-05-05T02:51:58.413Z,0
2016-05-05T02:53:11.137Z,0
2016-05-05T02:53:58.480Z,0
2016-05-05T02:55:17.658Z,0
2016-05-05T02:55:58.471Z,0
2016-05-05T02:57:24.148Z,0
2016-05-05T02:58:04.885Z,0
2016-05-05T02:58:58.338Z,0
2016-05-05T02:59:59.919Z,0
2016-05-05T03:01:04.831Z,0
2016-05-05T03:01:58.518Z,0
2016-05-05T03:03:11.289Z,0
2016-05-05T03:03:58.539Z,0
2016-05-05T03:05:24.623Z,0
2016-05-05T03:05:58.295Z,0
2016-05-05T03:06:58.625Z,0
2016-05-05T03:07:58.675Z,0
2016-05-05T03:09:13.009Z,0
2016-05-05T03:10:00.243Z,0
2016-05-05T03:12:01.825Z,0
2016-05-05T03:12:26.922Z,0
2016-05-05T03:13:27.222Z,0
2016-05-05T03:14:33.569Z,0
2016-05-05T03:15:33.680Z,0
2016-05-05T03:16:14.386Z,0
2016-05-05T03:18:05.830Z,0
2016-05-05T03:18:18.173Z,0
2016-05-05T03:19:49.630Z,0
2016-05-05T03:20:24.803Z,0
2016-05-05T03:22:33.590Z,0
2016-05-05T03:23:33.452Z,0
2016-05-05T03:24:39.768Z,0
2016-05-05T03:25:33.646Z,0
2016-05-05T03:26:34.773Z,0
2016-05-05T03:27:40.979Z,0
2016-05-05T03:28:33.699Z,5
2016-05-05T03:30:24.205Z,5
2016-05-05T03:30:39.580Z,5
2016-05-05T03:31:36.864Z,5
2016-05-05T03:32:37.367Z,5
2016-05-05T03:33:36.760Z,5
2016-05-05T03:34:49.670Z,5
2016-05-05T03:35:49.673Z,10
2016-05-05T03:36:56.253Z,10
2016-05-05T03:37:56.178Z,10
2016-05-05T03:39:02.493Z,10
2016-05-05T03:40:52.279Z,15
2016-05-05T03:42:05.016Z,15
2016-05-05T03:42:52.503Z,15
2016-05-05T03:43:52.819Z,15
2016-05-05T03:44:52.368Z,20
2016-05-05T03:45:58.620Z,20
2016-05-05T03:46:52.608Z,20
2016-05-05T03:48:04.658Z,20
2016-05-05T03:48:58.661Z,25
2016-05-05T03:50:49.399Z,25
2016-05-05T03:51:23.996Z,25
2016-05-05T03:52:20.983Z,30
2016-05-05T03:53:33.720Z,30
2016-05-05T03:54:28.098Z,30
2016-05-05T03:55:33.991Z,35
2016-05-05T03:56:28.963Z,35
2016-05-05T03:57:21.028Z,35
2016-05-05T03:58:02.622Z,40
2016-05-05T03:59:21.877Z,40
2016-05-05T04:00:03.455Z,40
2016-05-05T04:02:04.632Z,45
2016-05-05T04:02:42.807Z,45
2016-05-05T04:04:13.968Z,50
2016-05-05T04:04:45.875Z,50
2016-05-05T04:06:23.615Z,55
2016-05-05T04:07:26.618Z,55
2016-05-05T04:07:39.274Z,55
2016-05-05T04:08:39.339Z,55
2016-05-05T04:09:45.748Z,60
2016-05-05T04:10:45.516Z,60
2016-05-05T04:11:51.972Z,60
2016-05-05T04:12:58.568Z,65
2016-05-05T04:13:39.915Z,65
2016-05-05T04:15:36.233Z,70
2016-05-05T04:15:48.889Z,70
2016-05-05T04:17:45.864Z,70
2016-05-05T04:17:58.364Z,75
2016-05-05T04:20:00.947Z,75
2016-05-05T04:20:32.652Z,80
2016-05-05T04:21:13.467Z,80
2016-05-05T04:22:13.627Z,80
2016-05-05T04:23:13.504Z,85
2016-05-05T04:24:14.663Z,85
2016-05-05T04:25:26.635Z,85
2016-05-05T04:26:26.138Z,90
2016-05-05T04:27:13.344Z,90
2016-05-05T04:29:48.708Z,95
2016-05-05T04:30:42.257Z,95
2016-05-05T04:31:23.057Z,100
2016-05-05T04:32:22.794Z,100
2016-05-05T04:33:23.890Z,100
2016-05-05T04:34:22.987Z,100
2016-05-05T04:35:23.723Z,105
2016-05-05T04:36:35.712Z,105
2016-05-05T04:37:23.776Z,105
2016-05-05T04:38:42.279Z,105
2016-05-05T04:39:30.126Z,110
2016-05-05T04:40:48.862Z,110
2016-05-05T04:41:23.271Z,110
2016-05-05T04:44:03.870Z,115
2016-05-05T04:44:38.248Z,120
2016-05-05T04:45:38.173Z,120
2016-05-05T04:46:38.145Z,120
2016-05-05T04:47:39.194Z,125
2016-05-05T04:48:44.680Z,125
2016-05-05T04:49:38.903Z,125
2016-05-05T04:50:51.202Z,130
2016-05-05T04:51:38.455Z,130
2016-05-05T04:54:07.508Z,135
2016-05-05T04:55:38.793Z,140
2016-05-05T04:56:54.078Z,140
2016-05-05T04:57:32.283Z,140
2016-05-05T04:58:06.924Z,145
2016-05-05T05:00:09.352Z,150
2016-05-05T05:00:47.744Z,150
2016-05-05T05:01:21.982Z,155
2016-05-05T05:02:21.907Z,155
2016-05-05T05:03:22.065Z,160
2016-05-05T05:04:22.536Z,170
2016-05-05T05:05:22.117Z,175
2016-05-05T05:06:34.871Z,180
2016-05-05T05:07:23.560Z,190
2016-05-05T05:08:22.266Z,200
2016-05-05T05:09:21.878Z,210
2016-05-05T05:10:34.818Z,225
2016-05-05T05:11:28.305Z,290
2016-05-05T05:12:35.105Z,590
2016-05-05T05:13:34.826Z,870
2016-05-05T05:14:47.767Z,935
2016-05-05T05:15:22.113Z,955
2016-05-05T05:16:53.569Z,955
2016-05-05T05:17:22.305Z,955
2016-05-05T05:19:19.280Z,965
2016-05-05T05:19:31.983Z,970
2016-05-05T05:21:28.676Z,995
2016-05-05T05:21:44.239Z,995
2016-05-05T05:22:54.116Z,990
2016-05-05T05:23:54.119Z,970
2016-05-05T05:24:41.247Z,960
2016-05-05T05:26:38.252Z,995
2016-05-05T05:27:44.441Z,990
2016-05-05T05:29:45.291Z,1040
2016-05-05T05:30:32.622Z,1065
2016-05-05T05:31:38.202Z,1060
2016-05-05T05:33:03.815Z,1050
2016-05-05T05:33:42.005Z,1030
2016-05-05T05:35:07.945Z,1020
2016-05-05T05:35:20.479Z,1035
2016-05-05T05:37:23.312Z,1105
2016-05-05T05:38:01.546Z,1120
2016-05-05T05:38:35.846Z,1125
2016-05-05T05:40:27.493Z,1135
2016-05-05T05:40:40.102Z,1115
2016-05-05T05:42:42.795Z,1180
2016-05-05T05:43:14.375Z,1155
2016-05-05T05:43:55.484Z,1160
2016-05-05T05:45:57.943Z,1195
2016-05-05T05:46:10.662Z,1210
2016-05-05T05:47:10.493Z,1235
2016-05-05T05:48:10.370Z,1225
2016-05-05T05:49:23.501Z,1255
2016-05-05T05:50:10.642Z,1280
2016-05-05T05:52:07.569Z,1290
2016-05-05T05:53:13.636Z,1295
2016-05-05T05:55:01.186Z,1370
2016-05-05T05:57:03.910Z,1370
2016-05-05T05:57:42.100Z,1405
2016-05-05T05:58:16.322Z,1440
2016-05-05T05:59:16.653Z,1455
2016-05-05T06:00:16.546Z,1410
2016-05-05T06:01:29.549Z,1360
2016-05-05T06:02:16.738Z,1340
2016-05-05T06:03:35.804Z,1360
2016-05-05T06:04:16.807Z,1420
2016-05-05T06:06:39.375Z,1420
2016-05-05T06:06:51.891Z,1435
2016-05-05T06:08:48.895Z,1475
2016-05-05T06:09:04.661Z,1480
2016-05-05T06:10:52.136Z,1465
2016-05-05T06:11:04.824Z,1460
2016-05-05T06:12:36.140Z,1485
2016-05-05T06:13:11.219Z,1485
2016-05-05T06:15:20.195Z,1555
2016-05-05T06:17:17.170Z,1530
2016-05-05T06:17:55.358Z,1540
2016-05-05T06:18:29.735Z,1545
2016-05-05T06:20:30.053Z,1560
2016-05-05T06:20:42.709Z,1565
2016-05-05T06:22:49.105Z,1610
2016-05-05T06:23:42.899Z,1620
2016-05-05T06:24:55.418Z,1645
2016-05-05T06:25:55.623Z,1635
2016-05-05T06:26:49.299Z,1630
2016-05-05T06:27:43.347Z,1605
2016-05-05T06:28:42.959Z,1620
2016-05-05T06:29:42.884Z,1625
2016-05-05T06:30:42.918Z,1630
2016-05-05T06:31:46.093Z,1620
2016-05-05T06:32:55.658Z,1625
2016-05-05T06:33:43.113Z,1615
2016-05-05T06:36:11.915Z,1610
2016-05-05T06:38:58.501Z,1605
2016-05-05T06:39:39.989Z,1650
2016-05-05T06:40:27.273Z,1630
2016-05-05T06:41:46.494Z,1625
2016-05-05T06:42:27.279Z,1620
2016-05-05T06:43:27.344Z,1690
2016-05-05T06:44:27.378Z,1705
2016-05-05T06:45:40.224Z,1745
2016-05-05T06:46:40.195Z,1745
2016-05-05T06:47:40.480Z,1725
2016-05-05T06:48:27.544Z,1725
2016-05-05T06:50:25.831Z,1640
2016-05-05T06:50:38.519Z,1615
2016-05-05T06:52:03.927Z,1670
2016-05-05T06:52:51.164Z,1680
2016-05-05T06:54:04.199Z,1755
2016-05-05T06:54:38.702Z,1730
2016-05-05T06:56:35.722Z,1730
2016-05-05T06:56:48.347Z,1740
2016-05-05T06:57:48.413Z,1795
2016-05-05T06:58:48.634Z,1815
2016-05-05T06:59:48.543Z,1825
2016-05-05T07:01:00.967Z,1735
2016-05-05T07:02:01.283Z,1805
2016-05-05T07:03:01.223Z,1780
2016-05-05T07:03:49.241Z,1760
2016-05-05T07:05:07.729Z,1735
2016-05-05T07:05:48.716Z,1755
2016-05-05T07:07:46.284Z,1820
2016-05-05T07:08:24.676Z,1845
2016-05-05T07:09:11.832Z,1805
2016-05-05T07:10:55.979Z,1790
2016-05-05T07:11:08.323Z,1845
2016-05-05T07:13:06.265Z,1760
2016-05-05T07:13:18.784Z,1760
2016-05-05T07:14:50.099Z,1795
2016-05-05T07:15:19.023Z,1780
2016-05-05T07:16:19.072Z,1790
2016-05-05T07:17:18.936Z,1730
2016-05-05T07:18:19.125Z,1770
2016-05-05T07:19:19.159Z,1815
2016-05-05T07:20:19.224Z,1860
2016-05-05T07:21:32.008Z,1770
2016-05-05T07:22:19.136Z,1705
2016-05-05T07:24:16.094Z,1735
2016-05-05T07:24:28.860Z,1745
2016-05-05T07:26:20.694Z,1735
2016-05-05T07:26:59.100Z,1760
2016-05-05T07:27:33.430Z,1750
2016-05-05T07:28:33.511Z,1795
2016-05-05T07:29:33.514Z,1790
2016-05-05T07:30:33.377Z,1775
2016-05-05T07:31:33.707Z,1730
2016-05-05T07:32:33.616Z,1585
2016-05-05T07:33:33.744Z,1745
2016-05-05T07:34:46.262Z,1875
2016-05-05T07:35:34.171Z,1820
2016-05-05T07:37:30.739Z,1895
2016-05-05T07:37:43.160Z,1885
2016-05-05T07:38:43.460Z,1760
2016-05-05T07:39:44.087Z,1820
2016-05-05T07:40:43.544Z,1705
2016-05-05T07:41:43.343Z,1545
2016-05-05T07:42:43.611Z,1555
2016-05-05T07:43:43.615Z,1820
2016-05-05T07:44:43.742Z,1770
2016-05-05T07:45:43.729Z,1835
2016-05-05T07:46:43.606Z,1810
2016-05-05T07:47:43.812Z,1735
2016-05-05T07:48:43.878Z,1775
2016-05-05T07:49:43.833Z,1890
2016-05-05T07:50:43.868Z,1945
2016-05-05T07:51:50.089Z,1800
2016-05-05T07:52:43.780Z,1780
2016-05-05T07:54:03.032Z,1735
2016-05-05T07:54:51.191Z,1825
2016-05-05T07:55:56.787Z,1860
2016-05-05T07:57:03.290Z,1755
2016-05-05T07:57:50.371Z,1315
2016-05-05T08:00:18.582Z,355
2016-05-05T08:00:59.441Z,345
2016-05-05T08:03:02.024Z,330
2016-05-05T08:03:14.727Z,325
2016-05-05T08:04:14.605Z,320
2016-05-05T08:05:27.424Z,315
2016-05-05T08:06:15.408Z,310
2016-05-05T08:08:24.056Z,300
2016-05-05T08:10:21.359Z,290
2016-05-05T08:11:21.377Z,285
2016-05-05T08:12:21.411Z,285
2016-05-05T08:13:21.429Z,280
2016-05-05T08:14:21.167Z,280
2016-05-05T08:15:34.232Z,280
2016-05-05T08:16:27.812Z,280
2016-05-05T08:17:34.127Z,280
2016-05-05T08:18:28.303Z,275
2016-05-05T08:19:21.336Z,275
2016-05-05T08:21:24.873Z,270
2016-05-05T08:21:38.889Z,270
2016-05-05T08:23:21.597Z,270
2016-05-05T08:23:51.003Z,270
2016-05-05T08:24:37.506Z,265
2016-05-05T08:25:56.899Z,265
2016-05-05T08:26:50.464Z,265
2016-05-05T08:28:43.314Z,260
2016-05-05T08:28:56.002Z,260
2016-05-05T08:29:56.066Z,260
2016-05-05T08:31:08.788Z,255
2016-05-05T08:31:56.463Z,255
2016-05-05T08:33:15.324Z,255
2016-05-05T08:33:56.046Z,255
2016-05-05T08:35:15.205Z,255
2016-05-05T08:36:02.457Z,255
2016-05-05T08:37:15.429Z,255
2016-05-05T08:38:08.979Z,255
2016-05-05T08:38:56.324Z,255
2016-05-05T08:40:15.484Z,260
2016-05-05T08:41:02.408Z,260
2016-05-05T08:42:21.867Z,260
2016-05-05T08:42:56.398Z,260
2016-05-05T08:43:56.354Z,260
2016-05-05T08:45:02.512Z,260
2016-05-05T08:45:56.266Z,260
2016-05-05T08:47:46.958Z,255
2016-05-05T08:48:02.739Z,255
2016-05-05T08:49:18.698Z,250
2016-05-05T08:50:18.732Z,250
2016-05-05T08:50:59.717Z,250
2016-05-05T08:51:59.734Z,250
2016-05-05T08:53:12.550Z,245
2016-05-05T08:54:12.537Z,245
2016-05-05T08:55:56.589Z,245
2016-05-05T08:56:28.655Z,245
2016-05-05T08:57:09.311Z,240
2016-05-05T08:59:11.910Z,240
2016-05-05T08:59:24.584Z,240
2016-05-05T09:00:24.619Z,240
2016-05-05T09:01:24.669Z,240
2016-05-05T09:02:24.748Z,245
2016-05-05T09:03:37.439Z,240
2016-05-05T09:04:24.660Z,240
2016-05-05T09:05:43.929Z,240
2016-05-05T09:06:37.509Z,240
2016-05-05T09:07:50.465Z,235
2016-05-05T09:08:43.859Z,235
2016-05-05T09:09:56.112Z,230
2016-05-05T09:10:37.457Z,230
2016-05-05T09:11:50.476Z,235
2016-05-05T09:12:24.729Z,235
2016-05-05T09:13:24.888Z,235
2016-05-05T09:14:37.671Z,235
2016-05-05T09:15:37.784Z,230
2016-05-05T09:16:44.068Z,230
2016-05-05T09:17:50.680Z,230
2016-05-05T09:18:56.306Z,230
2016-05-05T09:20:56.812Z,225
2016-05-05T09:21:25.784Z,225
2016-05-05T09:23:22.086Z,225
2016-05-05T09:23:34.649Z,225
2016-05-05T09:24:35.120Z,225
2016-05-05T09:25:36.091Z,225
2016-05-05T09:26:35.970Z,225
2016-05-05T09:27:37.753Z,225
2016-05-05T09:28:34.725Z,225
2016-05-05T09:29:34.775Z,225
2016-05-05T09:30:35.060Z,225
2016-05-05T09:31:47.614Z,225
2016-05-05T09:32:48.765Z,220
2016-05-05T09:34:31.655Z,225
2016-05-05T09:34:50.264Z,225
2016-05-05T09:36:03.517Z,225
2016-05-05T09:36:57.145Z,220
2016-05-05T09:38:59.556Z,220
2016-05-05T09:39:12.181Z,220
2016-05-05T09:40:12.591Z,220
2016-05-05T09:41:12.280Z,220
2016-05-05T09:42:12.158Z,220
2016-05-05T09:43:18.437Z,220
2016-05-05T09:44:12.565Z,220
2016-05-05T09:45:25.100Z,220
2016-05-05T09:46:12.522Z,220
2016-05-05T09:47:12.995Z,220
2016-05-05T09:48:19.044Z,220
2016-05-05T09:49:12.328Z,220
2016-05-05T09:50:25.239Z,220
2016-05-05T09:51:12.645Z,220
2016-05-05T09:52:12.226Z,220
2016-05-05T09:53:18.761Z,215
2016-05-05T09:54:13.028Z,220
2016-05-05T09:55:12.828Z,215
2016-05-05T09:56:12.612Z,215
2016-05-05T09:57:12.739Z,215
2016-05-05T09:58:12.821Z,215
2016-05-05T09:59:12.683Z,215
2016-05-05T10:00:13.982Z,220
2016-05-05T10:01:18.672Z,220
2016-05-05T10:02:25.662Z,225
2016-05-05T10:03:25.337Z,220
2016-05-05T10:04:25.542Z,220
2016-05-05T10:05:25.560Z,225
2016-05-05T10:06:14.232Z,220
2016-05-05T10:07:32.098Z,215
2016-05-05T10:08:12.738Z,215
2016-05-05T10:09:38.540Z,215
2016-05-05T10:10:17.931Z,220
2016-05-05T10:11:12.902Z,215
2016-05-05T10:12:25.705Z,210
2016-05-05T10:13:25.817Z,210
2016-05-05T10:14:25.756Z,210
2016-05-05T10:15:32.276Z,205
2016-05-05T10:16:13.073Z,215
2016-05-05T10:18:22.331Z,205
2016-05-05T10:19:23.223Z,205
2016-05-05T10:20:29.272Z,205
2016-05-05T10:21:35.464Z,205
2016-05-05T10:22:22.763Z,205
2016-05-05T10:23:42.000Z,205
2016-05-05T10:24:29.314Z,205
2016-05-05T10:26:19.771Z,205
2016-05-05T10:26:32.336Z,205
2016-05-05T10:28:03.698Z,205
2016-05-05T10:28:32.216Z,205
2016-05-05T10:30:34.955Z,205
2016-05-05T10:30:47.627Z,205
2016-05-05T10:31:47.662Z,205
2016-05-05T10:32:47.431Z,205
2016-05-05T10:34:00.418Z,205
2016-05-05T10:34:47.717Z,205
2016-05-05T10:36:06.782Z,205
2016-05-05T10:36:47.816Z,205
2016-05-05T10:38:44.743Z,205
2016-05-05T10:38:57.446Z,205
2016-05-05T10:39:57.762Z,205
2016-05-05T10:40:57.154Z,205
2016-05-05T10:42:10.064Z,205
2016-05-05T10:42:57.504Z,205
2016-05-05T10:45:00.759Z,205
2016-05-05T10:46:00.778Z,205
2016-05-05T10:47:07.203Z,205
2016-05-05T10:48:07.081Z,205
2016-05-05T10:49:19.754Z,205
2016-05-05T10:50:51.197Z,205
2016-05-05T10:51:03.806Z,200
2016-05-05T10:52:03.919Z,200
2016-05-05T10:53:16.656Z,205
2016-05-05T10:54:16.564Z,200
2016-05-05T10:55:23.177Z,200
2016-05-05T10:56:16.805Z,200
2016-05-05T10:57:31.013Z,200
2016-05-05T10:58:16.810Z,200
2016-05-05T11:00:07.297Z,200
2016-05-05T11:00:39.374Z,200
2016-05-05T11:01:20.140Z,200
2016-05-05T11:03:16.952Z,200
2016-05-05T11:03:36.118Z,200
2016-05-05T11:05:27.061Z,200
2016-05-05T11:05:39.749Z,200
2016-05-05T11:07:11.096Z,200
2016-05-05T11:07:46.255Z,200
2016-05-05T11:08:40.126Z,200
2016-05-05T11:09:53.868Z,200
2016-05-05T11:10:40.220Z,200
2016-05-05T11:11:52.509Z,200
2016-05-05T11:12:52.533Z,200
2016-05-05T11:14:36.965Z,200
2016-05-05T11:15:08.777Z,200
2016-05-05T11:15:49.735Z,200
2016-05-05T11:17:59.447Z,195
2016-05-05T11:19:24.986Z,200
2016-05-05T11:20:12.048Z,195
2016-05-05T11:21:25.040Z,200
2016-05-05T11:22:12.259Z,195
2016-05-05T11:24:02.152Z,195
2016-05-05T11:24:21.090Z,195
2016-05-05T11:25:15.077Z,195
2016-05-05T11:26:27.443Z,195
2016-05-05T11:27:27.430Z,195
2016-05-05T11:28:34.120Z,195
2016-05-05T11:29:34.123Z,195
2016-05-05T11:30:40.641Z,195
2016-05-05T11:31:15.047Z,195
2016-05-05T11:33:12.132Z,195
2016-05-05T11:33:24.726Z,195
2016-05-05T11:35:21.808Z,195
2016-05-05T11:35:34.389Z,195
2016-05-05T11:36:34.205Z,195
2016-05-05T11:37:34.066Z,195
2016-05-05T11:38:34.382Z,195
2016-05-05T11:39:35.292Z,195
2016-05-05T11:40:35.716Z,195
2016-05-05T11:41:34.438Z,195
2016-05-05T11:42:47.315Z,195
2016-05-05T11:43:47.099Z,195
2016-05-05T11:44:53.742Z,195
2016-05-05T11:46:31.373Z,195
2016-05-05T11:47:03.123Z,195
2016-05-05T11:47:56.672Z,195
2016-05-05T11:48:44.362Z,195
2016-05-05T11:50:03.224Z,195
2016-05-05T11:50:44.149Z,195
2016-05-05T11:52:09.667Z,195
2016-05-05T11:52:44.279Z,195
2016-05-05T11:54:42.223Z,195
2016-05-05T11:54:54.598Z,195
2016-05-05T11:55:54.960Z,195
2016-05-05T11:56:54.837Z,195
2016-05-05T11:58:07.715Z,195
2016-05-05T11:58:55.201Z,195
2016-05-05T12:00:14.220Z,195
2016-05-05T12:00:55.269Z,195
2016-05-05T12:01:55.178Z,195
2016-05-05T12:02:55.103Z,195
2016-05-05T12:04:01.215Z,195
2016-05-05T12:05:07.875Z,195
2016-05-05T12:06:07.799Z,195
2016-05-05T12:06:55.208Z,195
2016-05-05T12:07:55.272Z,195
2016-05-05T12:09:07.822Z,195
2016-05-05T12:09:55.528Z,195
2016-05-05T12:11:14.469Z,195
2016-05-05T12:11:55.299Z,195
2016-05-05T12:12:56.739Z,195
2016-05-05T12:14:03.038Z,195
2016-05-05T12:14:55.213Z,195
2016-05-05T12:16:20.918Z,195
2016-05-05T12:16:55.282Z,195
2016-05-05T12:18:14.644Z,195
2016-05-05T12:18:55.318Z,195
2016-05-05T12:20:26.462Z,195
2016-05-05T12:21:01.839Z,195
2016-05-05T12:21:55.513Z,195
2016-05-05T12:23:14.812Z,195
2016-05-05T12:24:02.456Z,195
2016-05-05T12:25:21.507Z,195
2016-05-05T12:26:14.837Z,195
2016-05-05T12:27:27.621Z,195
2016-05-05T12:28:21.186Z,195
2016-05-05T12:30:08.581Z,195
2016-05-05T12:31:01.851Z,195
2016-05-05T12:32:21.337Z,195
2016-05-05T12:33:03.324Z,195
2016-05-05T12:35:17.314Z,195
2016-05-05T12:36:11.129Z,195
2016-05-05T12:37:23.866Z,195
2016-05-05T12:38:11.463Z,195
2016-05-05T12:39:30.327Z,195
2016-05-05T12:40:18.265Z,195
2016-05-05T12:41:11.064Z,195
2016-05-05T12:43:14.226Z,195
2016-05-05T12:45:26.888Z,195
2016-05-05T12:46:43.112Z,195
2016-05-05T12:47:30.037Z,195
2016-05-05T12:48:49.446Z,195
2016-05-05T12:49:36.870Z,190
2016-05-05T12:50:23.917Z,190
2016-05-05T12:51:25.435Z,190
2016-05-05T12:52:36.893Z,190
2016-05-05T12:53:36.943Z,195
2016-05-05T12:54:43.290Z,190
2016-05-05T12:55:43.777Z,190
2016-05-05T12:56:55.404Z,190
2016-05-05T12:57:55.438Z,190
2016-05-05T13:00:21.804Z,190
2016-05-05T13:00:34.337Z,190
2016-05-05T13:02:27.871Z,190
2016-05-05T13:02:46.952Z,190
2016-05-05T13:03:40.626Z,190
2016-05-05T13:04:53.192Z,190
2016-05-05T13:05:41.131Z,190
2016-05-05T13:06:53.541Z,190
2016-05-05T13:07:41.591Z,195
2016-05-05T13:08:53.437Z,190
2016-05-05T13:09:53.783Z,190
2016-05-05T13:10:59.833Z,190
2016-05-05T13:11:59.867Z,190
2016-05-05T13:12:41.275Z,190
2016-05-05T13:13:41.419Z,190
2016-05-05T13:14:40.890Z,195
2016-05-05T13:15:42.112Z,190
2016-05-05T13:16:40.786Z,190
2016-05-05T13:17:53.789Z,195
2016-05-05T13:18:41.620Z,195
2016-05-05T13:20:06.701Z,190
2016-05-05T13:20:42.688Z,190
2016-05-05T13:22:43.584Z,190
2016-05-05T13:23:08.724Z,190
2016-05-05T13:23:56.118Z,190
2016-05-05T13:25:21.933Z,190
2016-05-05T13:26:02.357Z,190
2016-05-05T13:27:21.892Z,190
2016-05-05T13:28:08.957Z,190
2016-05-05T13:29:27.568Z,190
2016-05-05T13:29:59.321Z,190
2016-05-05T13:30:56.153Z,190
2016-05-05T13:31:56.342Z,190
2016-05-05T13:33:02.486Z,190
2016-05-05T13:34:09.176Z,190
2016-05-05T13:35:09.132Z,190
2016-05-05T13:36:22.087Z,190
2016-05-05T13:39:01.908Z,190
2016-05-05T13:39:33.239Z,190
2016-05-05T13:41:03.242Z,190
2016-05-05T13:41:37.291Z,185
2016-05-05T13:42:33.763Z,190
2016-05-05T13:43:31.653Z,190
2016-05-05T13:44:43.815Z,190
2016-05-05T13:45:32.505Z,190
2016-05-05T13:46:43.836Z,190
2016-05-05T13:47:43.870Z,190
2016-05-05T13:48:31.777Z,190
2016-05-05T13:50:27.968Z,190
2016-05-05T13:50:40.519Z,190
2016-05-05T13:52:34.071Z,190
2016-05-05T13:52:46.868Z,190
2016-05-05T13:54:56.482Z,190
2016-05-05T13:56:15.735Z,190
2016-05-05T13:57:02.566Z,190
2016-05-05T13:58:53.024Z,190
2016-05-05T13:59:24.915Z,190
2016-05-05T14:00:05.731Z,190
2016-05-05T14:01:11.889Z,190
2016-05-05T14:02:18.345Z,185
2016-05-05T14:03:18.363Z,185
2016-05-05T14:04:18.584Z,185
2016-05-05T14:05:25.072Z,185
2016-05-05T14:06:24.934Z,185
2016-05-05T14:07:18.764Z,190
2016-05-05T14:08:37.036Z,190
2016-05-05T14:09:25.161Z,190
2016-05-05T14:10:05.648Z,190
2016-05-05T14:12:41.375Z,185
2016-05-05T14:14:06.269Z,185
2016-05-05T14:14:44.474Z,190
2016-05-05T14:15:18.958Z,190
2016-05-05T14:17:21.744Z,190
2016-05-05T14:18:12.686Z,190
2016-05-05T14:20:46.850Z,190
2016-05-05T14:21:21.834Z,190
2016-05-05T14:22:15.461Z,190
2016-05-05T14:23:15.713Z,190
2016-05-05T14:24:21.748Z,190
2016-05-05T14:25:21.860Z,190
2016-05-05T14:26:17.129Z,190
2016-05-05T14:28:25.243Z,190
2016-05-05T14:30:15.921Z,190
2016-05-05T14:30:44.517Z,190
2016-05-05T14:31:47.832Z,190
2016-05-05T14:32:41.382Z,190
2016-05-05T14:33:59.948Z,190
2016-05-05T14:35:19.059Z,195
2016-05-05T14:36:02.780Z,190
2016-05-05T14:36:44.409Z,190
2016-05-05T14:37:31.690Z,190
2016-05-05T14:38:50.976Z,190
2016-05-05T14:39:44.775Z,190
2016-05-05T14:41:47.078Z,190
2016-05-05T14:42:12.484Z,190
2016-05-05T14:44:25.364Z,190
2016-05-05T14:44:59.680Z,190
2016-05-05T14:46:31.151Z,190